createdAt,value
2019-03-27T00:01:10.617Z,95412.48
2019-03-27T00:03:44.487Z,95416.43
2019-03-27T00:06:15.599Z,95401.48
2019-03-27T00:08:45.860Z,95406.33
2019-03-27T00:11:17.123Z,95406.33
2019-03-27T00:13:51.409Z,95408.68
2019-03-27T00:16:24.647Z,95403.16
2019-03-27T00:18:57.209Z,95407.63
2019-03-27T00:21:29.064Z,95398.41
2019-03-27T00:24:02.082Z,95399.69
2019-03-27T00:26:33.861Z,95402.28
2019-03-27T00:29:05.751Z,95411.08
2019-03-27T00:31:38.853Z,95411.08
2019-03-27T00:34:12.054Z,95400.98
2019-03-27T00:36:43.923Z,95403.17
2019-03-27T00:39:15.550Z,95391.89
2019-03-27T00:41:45.680Z,95391.89
2019-03-27T00:44:15.737Z,95404.58
2019-03-27T00:46:48.290Z,95407.06
2019-03-27T00:49:20.640Z,95407.73
2019-03-27T00:51:53.228Z,95401.69
2019-03-27T00:54:29.483Z,95399.98
2019-03-27T00:56:56.642Z,95404.21
2019-03-27T00:59:28.972Z,95407.41
2019-03-27T01:02:01.249Z,95411.28
2019-03-27T01:04:34.814Z,95411.28
2019-03-27T01:07:05.055Z,95417.50
2019-03-27T01:09:44.797Z,95417.50
2019-03-27T01:12:14.884Z,95415.16
2019-03-27T01:14:45.123Z,95419.58
2019-03-27T01:17:19.673Z,95414.10
2019-03-27T01:19:50.020Z,95414.10
2019-03-27T01:22:20.154Z,95416.62
2019-03-27T01:24:57.314Z,95421.84
2019-03-27T01:27:31.417Z,95414.86
2019-03-27T01:30:01.706Z,95428.92
2019-03-27T01:32:35.586Z,95421.17
2019-03-27T01:35:06.173Z,95424.73
2019-03-27T01:37:37.549Z,95428.99
2019-03-27T01:40:10.362Z,95431.91
2019-03-27T01:42:40.235Z,95431.91
2019-03-27T01:45:11.303Z,95436.72
2019-03-27T01:47:43.513Z,95437.58
2019-03-27T01:50:13.586Z,95433.41
2019-03-27T01:52:45.814Z,95445.81
2019-03-27T01:55:17.571Z,95445.81
2019-03-27T01:57:47.795Z,95441.88
2019-03-27T02:00:18.254Z,95446.19
2019-03-27T02:02:52.765Z,95443.72
2019-03-27T02:05:24.255Z,95444.41
2019-03-27T02:07:54.228Z,95451.84
2019-03-27T02:10:27.934Z,95450.84
2019-03-27T02:12:59.466Z,95452.44
2019-03-27T02:15:29.778Z,95451.58
2019-03-27T02:17:59.890Z,95451.58
2019-03-27T02:20:30.015Z,95448.13
2019-03-27T02:23:00.218Z,95449.23
2019-03-27T02:25:30.497Z,95453.53
2019-03-27T02:28:00.696Z,95451.30
2019-03-27T02:30:33.218Z,95454.54
2019-03-27T02:33:03.240Z,95460.08
2019-03-27T02:35:35.715Z,95463.50
2019-03-27T02:38:05.845Z,95463.32
2019-03-27T02:40:36.230Z,95460.43
2019-03-27T02:43:06.363Z,95471.78
2019-03-27T02:45:36.624Z,95477.12
2019-03-27T02:48:06.720Z,95479.17
2019-03-27T02:50:40.160Z,95480.36
2019-03-27T02:53:10.289Z,95482.02
2019-03-27T02:55:41.254Z,95485.12
2019-03-27T02:58:15.241Z,95491.05
2019-03-27T03:00:45.416Z,95491.79
2019-03-27T03:03:15.625Z,95488.67
2019-03-27T03:05:45.786Z,95492.12
2019-03-27T03:08:18.021Z,95498.39
2019-03-27T03:10:48.298Z,95499.30
2019-03-27T03:13:18.635Z,95494.12
2019-03-27T03:15:49.695Z,95501.53
2019-03-27T03:18:19.750Z,95504.43
2019-03-27T03:20:52.401Z,95509.13
2019-03-27T03:23:22.722Z,95508.47
2019-03-27T03:25:52.777Z,95511.85
2019-03-27T03:28:22.754Z,95505.98
2019-03-27T03:30:52.958Z,95509.98
2019-03-27T03:33:25.985Z,95505.72
2019-03-27T03:35:57.642Z,95508.50
2019-03-27T03:38:30.155Z,95507.50
2019-03-27T03:41:01.565Z,95510.56
2019-03-27T03:43:31.757Z,95513.02
2019-03-27T03:46:02.190Z,95519.13
2019-03-27T03:48:34.262Z,95516.23
2019-03-27T03:51:05.718Z,95529.66
2019-03-27T03:53:39.034Z,95523.29
2019-03-27T03:56:12.224Z,95533.52
2019-03-27T03:58:43.306Z,95531.74
2019-03-27T04:01:14.802Z,95536.06
2019-03-27T04:03:49.570Z,95536.55
2019-03-27T04:06:19.873Z,95540.30
2019-03-27T04:08:53.140Z,95546.53
2019-03-27T04:11:23.353Z,95545.72
2019-03-27T04:13:56.113Z,95551.18
2019-03-27T04:16:26.347Z,95543.21
2019-03-27T04:18:58.134Z,95542.30
2019-03-27T04:21:28.364Z,95551.30
2019-03-27T04:23:58.461Z,95556.89
2019-03-27T04:26:28.484Z,95555.88
2019-03-27T04:28:59.811Z,95554.59
2019-03-27T04:31:29.995Z,95554.89
2019-03-27T04:34:00.043Z,95551.20
2019-03-27T04:36:31.547Z,95552.55
2019-03-27T04:39:01.689Z,95557.10
2019-03-27T04:41:35.194Z,95559.91
2019-03-27T04:44:08.793Z,95571.84
2019-03-27T04:46:44.948Z,95574.25
2019-03-27T04:49:11.739Z,95576.11
2019-03-27T04:51:45.723Z,95577.19
2019-03-27T04:54:15.772Z,95580.56
2019-03-27T04:56:45.775Z,95585.56
2019-03-27T04:59:20.911Z,95577.36
2019-03-27T05:01:52.010Z,95595.37
2019-03-27T05:04:24.498Z,95594.03
2019-03-27T05:06:54.523Z,95599.89
2019-03-27T05:09:24.714Z,95594.52
2019-03-27T05:11:56.693Z,95601.45
2019-03-27T05:14:26.907Z,95605.63
2019-03-27T05:16:58.429Z,95604.03
2019-03-27T05:19:28.627Z,95609.59
2019-03-27T05:21:58.887Z,95608.14
2019-03-27T05:24:30.142Z,95604.91
2019-03-27T05:27:03.725Z,95611.30
2019-03-27T05:29:33.882Z,95616.24
2019-03-27T05:32:04.110Z,95622.25
2019-03-27T05:34:34.256Z,95614.73
2019-03-27T05:37:07.347Z,95617.17
2019-03-27T05:39:37.547Z,95615.73
2019-03-27T05:42:07.718Z,95619.86
2019-03-27T05:44:39.193Z,95627.91
2019-03-27T05:47:10.658Z,95626.28
2019-03-27T05:49:40.588Z,95627.52
2019-03-27T05:52:10.519Z,95629.32
2019-03-27T05:54:40.715Z,95623.08
2019-03-27T05:57:13.267Z,95633.69
2019-03-27T05:59:46.698Z,95624.67
2019-03-27T06:02:17.931Z,95625.78
2019-03-27T06:04:49.612Z,95624.67
2019-03-27T06:07:19.847Z,95634.20
2019-03-27T06:09:53.925Z,95628.66
2019-03-27T06:12:26.700Z,95632.72
2019-03-27T06:14:56.843Z,95640.53
2019-03-27T06:17:26.931Z,95646.33
2019-03-27T06:19:58.863Z,95644.69
2019-03-27T06:22:30.783Z,95643.81
2019-03-27T06:25:04.236Z,95640.31
2019-03-27T06:27:34.137Z,95649.87
2019-03-27T06:30:06.595Z,95647.28
2019-03-27T06:32:38.681Z,95646.30
2019-03-27T06:35:09.409Z,95649.94
2019-03-27T06:37:39.663Z,95649.27
2019-03-27T06:40:10.136Z,95650.53
2019-03-27T06:42:40.272Z,95648.61
2019-03-27T06:45:10.882Z,95646.71
2019-03-27T06:47:41.050Z,95649.01
2019-03-27T06:50:16.023Z,95649.44
2019-03-27T06:52:47.381Z,95646.45
2019-03-27T06:55:20.912Z,95642.38
2019-03-27T06:57:52.048Z,95644.36
2019-03-27T07:00:30.815Z,95648.23
2019-03-27T07:03:03.474Z,95647.66
2019-03-27T07:05:42.596Z,95649.94
2019-03-27T07:08:12.534Z,95645.65
2019-03-27T07:10:42.787Z,95647.80
2019-03-27T07:13:12.887Z,95653.56
2019-03-27T07:15:44.709Z,95645.92
2019-03-27T07:18:16.806Z,95648.41
2019-03-27T07:20:46.873Z,95654.66
2019-03-27T07:23:18.689Z,95651.39
2019-03-27T07:25:52.996Z,95651.42
2019-03-27T07:28:23.109Z,95659.44
2019-03-27T07:30:54.351Z,95656.81
2019-03-27T07:33:24.571Z,95656.27
2019-03-27T07:35:57.467Z,95646.03
2019-03-27T07:38:28.582Z,95646.06
2019-03-27T07:41:00.017Z,95648.42
2019-03-27T07:43:30.068Z,95645.59
2019-03-27T07:46:00.153Z,95652.98
2019-03-27T07:48:30.392Z,95651.03
2019-03-27T07:51:02.138Z,95643.71
2019-03-27T07:53:35.492Z,95652.08
2019-03-27T07:56:09.774Z,95656.92
2019-03-27T07:58:39.979Z,95660.22
2019-03-27T08:01:10.180Z,95660.27
2019-03-27T08:03:40.369Z,95662.59
2019-03-27T08:06:10.457Z,95661.23
2019-03-27T08:08:45.307Z,95661.27
2019-03-27T08:11:18.713Z,95667.17
2019-03-27T08:13:56.589Z,95663.36
2019-03-27T08:16:28.825Z,95659.69
2019-03-27T08:19:07.854Z,95661.81
2019-03-27T08:21:34.959Z,95659.81
2019-03-27T08:24:07.157Z,95661.52
2019-03-27T08:26:42.653Z,95661.28
2019-03-27T08:29:12.795Z,95665.69
2019-03-27T08:31:47.570Z,95674.23
2019-03-27T08:34:17.724Z,95666.50
2019-03-27T08:36:50.191Z,95667.02
2019-03-27T08:39:22.583Z,95670.45
2019-03-27T08:41:52.838Z,95665.16
2019-03-27T08:44:23.018Z,95665.75
2019-03-27T08:46:55.444Z,95667.88
2019-03-27T08:49:27.491Z,95663.61
2019-03-27T08:51:59.608Z,95661.32
2019-03-27T08:54:29.761Z,95660.18
2019-03-27T08:57:00.002Z,95660.11
2019-03-27T08:59:30.117Z,95658.82
2019-03-27T09:02:00.313Z,95662.97
2019-03-27T09:04:33.424Z,95656.30
2019-03-27T09:07:05.969Z,95644.08
2019-03-27T09:09:40.381Z,95651.55
2019-03-27T09:12:10.634Z,95651.95
2019-03-27T09:14:40.683Z,95648.91
2019-03-27T09:17:13.122Z,95642.22
2019-03-27T09:19:43.363Z,95648.45
2019-03-27T09:22:19.476Z,95646.81
2019-03-27T09:24:51.881Z,95644.38
2019-03-27T09:30:15.166Z,95643.11
2019-03-27T09:32:46.470Z,95644.74
2019-03-27T09:35:16.881Z,95644.93
2019-03-27T09:37:48.947Z,95629.30
2019-03-27T09:40:21.466Z,95636.34
2019-03-27T09:42:53.329Z,95638.48
2019-03-27T09:45:27.383Z,95642.19
2019-03-27T09:47:57.630Z,95636.44
2019-03-27T09:50:30.059Z,95635.41
2019-03-27T09:53:00.317Z,95631.97
2019-03-27T09:55:30.540Z,95639.03
2019-03-27T09:58:04.324Z,95633.99
2019-03-27T10:00:57.128Z,95634.21
2019-03-27T10:03:29.799Z,95632.72
2019-03-27T10:06:01.490Z,95627.36
2019-03-27T10:08:33.219Z,95623.24
2019-03-27T10:11:06.511Z,95618.95
2019-03-27T10:13:36.802Z,95622.58
2019-03-27T10:16:07.201Z,95613.31
2019-03-27T10:18:37.378Z,95611.19
2019-03-27T10:21:09.966Z,95611.72
2019-03-27T10:23:40.077Z,95601.53
2019-03-27T10:26:12.161Z,95604.39
2019-03-27T10:28:44.135Z,95599.97
2019-03-27T10:31:16.455Z,95601.83
2019-03-27T10:33:52.024Z,95594.38
2019-03-27T10:36:22.036Z,95594.98
2019-03-27T10:38:52.140Z,95589.50
2019-03-27T10:41:26.509Z,95574.41
2019-03-27T10:43:54.052Z,95579.02
2019-03-27T10:46:24.243Z,95585.12
2019-03-27T10:48:54.421Z,95579.23
2019-03-27T10:51:24.809Z,95583.48
2019-03-27T10:53:55.013Z,95579.48
2019-03-27T10:56:25.167Z,95573.39
2019-03-27T10:58:55.382Z,95574.52
2019-03-27T11:01:25.415Z,95567.40
2019-03-27T11:03:55.586Z,95561.70
2019-03-27T11:06:25.749Z,95552.66
2019-03-27T11:08:57.315Z,95554.20
2019-03-27T11:11:27.429Z,95554.85
2019-03-27T11:13:57.629Z,95554.84
2019-03-27T11:16:27.983Z,95557.92
2019-03-27T11:18:58.061Z,95549.02
2019-03-27T11:21:28.199Z,95548.75
2019-03-27T11:23:58.497Z,95551.23
2019-03-27T11:26:30.843Z,95551.13
2019-03-27T11:29:01.002Z,95553.41
2019-03-27T11:31:32.491Z,95548.78
2019-03-27T11:34:03.911Z,95548.28
2019-03-27T11:36:35.303Z,95534.32
2019-03-27T11:39:08.545Z,95528.71
2019-03-27T11:41:38.769Z,95529.25
2019-03-27T11:44:12.668Z,95529.20
2019-03-27T11:46:44.193Z,95520.89
2019-03-27T11:49:14.386Z,95517.77
2019-03-27T11:51:44.582Z,95515.84
2019-03-27T11:54:14.674Z,95517.62
2019-03-27T11:56:44.749Z,95514.34
2019-03-27T11:59:14.938Z,95507.09
2019-03-27T12:01:47.319Z,95510.16
2019-03-27T12:04:17.560Z,95515.83
2019-03-27T12:06:49.680Z,95502.66
2019-03-27T12:09:19.785Z,95506.02
2019-03-27T12:11:51.411Z,95511.27
2019-03-27T12:14:22.504Z,95505.63
2019-03-27T12:16:54.176Z,95501.45
2019-03-27T12:19:25.628Z,95495.08
2019-03-27T12:21:59.767Z,95494.05
2019-03-27T12:24:31.210Z,95488.41
2019-03-27T12:27:01.342Z,95488.61
2019-03-27T12:29:32.920Z,95487.30
2019-03-27T12:32:06.379Z,95496.22
2019-03-27T12:34:38.549Z,95487.77
2019-03-27T12:37:08.665Z,95484.43
2019-03-27T12:39:40.755Z,95484.16
2019-03-27T12:42:10.742Z,95477.05
2019-03-27T12:44:40.793Z,95479.75
2019-03-27T12:47:11.029Z,95479.36
2019-03-27T12:49:42.434Z,95480.81
2019-03-27T12:52:12.821Z,95476.17
2019-03-27T12:54:44.007Z,95469.64
2019-03-27T12:57:14.013Z,95467.88
2019-03-27T12:59:44.052Z,95465.63
2019-03-27T13:02:14.378Z,95477.86
2019-03-27T13:04:44.376Z,95471.89
2019-03-27T13:07:16.207Z,95459.46
2019-03-27T13:09:48.439Z,95473.25
2019-03-27T13:12:18.627Z,95468.05
2019-03-27T13:14:48.805Z,95468.39
2019-03-27T13:17:23.451Z,95471.50
2019-03-27T13:19:54.960Z,95464.47
2019-03-27T13:22:24.998Z,95460.52
2019-03-27T13:24:55.278Z,95462.23
2019-03-27T13:27:25.502Z,95467.63
2019-03-27T13:29:55.665Z,95466.83
2019-03-27T13:32:25.733Z,95462.41
2019-03-27T13:34:57.340Z,95459.75
2019-03-27T13:37:28.850Z,95455.48
2019-03-27T13:40:03.342Z,95457.73
2019-03-27T13:42:36.416Z,95468.03
2019-03-27T13:45:07.603Z,95468.80
2019-03-27T13:47:39.670Z,95475.17
2019-03-27T13:50:13.296Z,95464.44
2019-03-27T13:52:46.426Z,95470.39
2019-03-27T13:55:20.275Z,95467.77
2019-03-27T13:57:52.076Z,95464.83
2019-03-27T14:00:26.597Z,95470.83
2019-03-27T14:02:58.254Z,95466.86
2019-03-27T14:05:28.584Z,95469.95
2019-03-27T14:08:01.015Z,95470.65
2019-03-27T14:10:39.937Z,95476.89
2019-03-27T14:13:10.151Z,95476.32
2019-03-27T14:15:41.717Z,95471.50
2019-03-27T14:18:14.784Z,95476.70
2019-03-27T14:20:44.809Z,95472.03
2019-03-27T14:23:16.421Z,95466.17
2019-03-27T14:25:48.916Z,95468.56
2019-03-27T14:28:20.318Z,95473.16
2019-03-27T14:30:58.061Z,95470.88
2019-03-27T14:33:31.815Z,95470.48
2019-03-27T14:36:05.717Z,95475.40
2019-03-27T14:38:35.966Z,95475.97
2019-03-27T14:41:08.848Z,95475.08
2019-03-27T14:43:40.049Z,95476.56
2019-03-27T14:46:11.509Z,95472.33
2019-03-27T14:48:43.239Z,95476.97
2019-03-27T14:51:17.299Z,95478.12
2019-03-27T14:53:51.102Z,95478.22
2019-03-27T14:56:21.278Z,95483.04
2019-03-27T14:58:51.348Z,95488.48
2019-03-27T15:01:21.572Z,95485.55
2019-03-27T15:03:51.659Z,95485.87
2019-03-27T15:06:21.863Z,95488.27
2019-03-27T15:08:52.472Z,95484.57
2019-03-27T15:11:23.717Z,95483.88
2019-03-27T15:13:53.960Z,95485.98
2019-03-27T15:16:24.035Z,95492.84
2019-03-27T15:18:54.020Z,95495.45
2019-03-27T15:21:26.393Z,95488.20
2019-03-27T15:24:04.173Z,95491.71
2019-03-27T15:26:38.638Z,95491.34
2019-03-27T15:29:12.538Z,95497.80
2019-03-27T15:31:42.507Z,95490.81
2019-03-27T15:34:12.631Z,95495.88
2019-03-27T15:36:44.028Z,95497.80
2019-03-27T15:39:14.219Z,95501.16
2019-03-27T15:41:44.277Z,95496.13
2019-03-27T15:44:14.408Z,95498.15
2019-03-27T15:46:44.517Z,95496.84
2019-03-27T15:49:14.574Z,95508.00
2019-03-27T15:51:44.887Z,95503.70
2019-03-27T15:54:14.975Z,95503.42
2019-03-27T15:56:45.208Z,95509.81
2019-03-27T15:59:18.505Z,95515.98
2019-03-27T16:01:48.740Z,95515.40
2019-03-27T16:04:20.405Z,95520.77
2019-03-27T16:06:50.654Z,95521.70
2019-03-27T16:09:22.162Z,95525.31
2019-03-27T16:11:54.214Z,95525.77
2019-03-27T16:14:25.512Z,95531.55
2019-03-27T16:17:12.349Z,95531.09
2019-03-27T16:19:30.094Z,95534.70
2019-03-27T16:22:03.529Z,95535.40
2019-03-27T16:24:39.167Z,95534.58
2019-03-27T16:27:14.752Z,95542.39
2019-03-27T16:29:44.956Z,95542.71
2019-03-27T16:32:15.017Z,95551.17
2019-03-27T16:34:45.053Z,95555.69
2019-03-27T16:37:17.175Z,95558.36
2019-03-27T16:39:47.405Z,95561.02
2019-03-27T16:42:18.813Z,95560.92
2019-03-27T16:44:50.663Z,95569.97
2019-03-27T16:47:24.553Z,95568.22
2019-03-27T16:49:54.610Z,95570.46
2019-03-27T16:52:24.792Z,95579.23
2019-03-27T16:54:55.100Z,95589.20
2019-03-27T16:57:26.390Z,95586.73
2019-03-27T16:59:56.534Z,95595.64
2019-03-27T17:02:26.574Z,95601.20
2019-03-27T17:04:56.531Z,95604.20
2019-03-27T17:07:31.238Z,95605.33
2019-03-27T17:10:01.348Z,95613.05
2019-03-27T17:12:33.721Z,95610.05
2019-03-27T17:15:04.357Z,95622.16
2019-03-27T17:17:36.181Z,95629.97
2019-03-27T17:20:07.478Z,95636.98
2019-03-27T17:22:37.600Z,95643.48
2019-03-27T17:25:07.750Z,95652.56
2019-03-27T17:27:37.768Z,95659.33
2019-03-27T17:30:08.572Z,95662.74
2019-03-27T17:32:38.699Z,95659.15
2019-03-27T17:35:10.435Z,95661.86
2019-03-27T17:37:40.653Z,95668.45
2019-03-27T17:40:11.235Z,95670.36
2019-03-27T17:42:41.594Z,95677.34
2019-03-27T17:45:12.047Z,95681.53
2019-03-27T17:47:42.322Z,95683.59
2019-03-27T17:50:17.028Z,95693.68
2019-03-27T17:52:47.265Z,95696.58
2019-03-27T17:55:18.699Z,95700.58
2019-03-27T17:57:48.940Z,95700.86
2019-03-27T18:00:26.434Z,95717.23
2019-03-27T18:02:56.534Z,95713.75
2019-03-27T18:05:27.153Z,95720.92
2019-03-27T18:07:59.655Z,95727.61
2019-03-27T18:10:29.990Z,95731.08
2019-03-27T18:13:00.222Z,95737.30
2019-03-27T18:15:32.858Z,95739.35
2019-03-27T18:18:03.119Z,95747.23
2019-03-27T18:20:33.295Z,95745.64
2019-03-27T18:23:03.622Z,95750.83
2019-03-27T18:25:33.856Z,95754.20
2019-03-27T18:28:06.799Z,95744.70
2019-03-27T18:30:37.018Z,95750.98
2019-03-27T18:33:07.351Z,95755.44
2019-03-27T18:35:37.385Z,95760.80
2019-03-27T18:38:08.446Z,95757.48
2019-03-27T18:40:41.099Z,95756.67
2019-03-27T18:43:11.240Z,95757.78
2019-03-27T18:45:41.510Z,95763.03
2019-03-27T18:48:11.757Z,95768.95
2019-03-27T18:50:42.853Z,95762.75
2019-03-27T18:53:13.151Z,95762.54
2019-03-27T18:55:52.027Z,95767.27
2019-03-27T18:58:22.074Z,95764.89
2019-03-27T19:00:52.230Z,95755.83
2019-03-27T19:03:22.504Z,95753.39
2019-03-27T19:05:52.735Z,95756.56
2019-03-27T19:08:22.936Z,95759.47
2019-03-27T19:10:53.254Z,95761.00
2019-03-27T19:13:23.374Z,95756.72
2019-03-27T19:15:53.975Z,95755.55
2019-03-27T19:18:24.273Z,95765.38
2019-03-27T19:20:54.428Z,95762.99
2019-03-27T19:23:24.510Z,95764.54
2019-03-27T19:25:54.793Z,95772.80
2019-03-27T19:28:27.917Z,95773.79
2019-03-27T19:30:58.084Z,95769.91
2019-03-27T19:33:28.084Z,95781.13
2019-03-27T19:35:58.254Z,95770.80
2019-03-27T19:38:28.605Z,95776.59
2019-03-27T19:41:00.200Z,95776.72
2019-03-27T19:43:30.309Z,95772.75
2019-03-27T19:46:05.734Z,95774.84
2019-03-27T19:48:37.229Z,95776.14
2019-03-27T19:51:07.674Z,95770.87
2019-03-27T19:53:37.860Z,95781.67
2019-03-27T19:56:08.063Z,95784.38
2019-03-27T19:58:38.253Z,95783.56
2019-03-27T20:01:09.090Z,95779.21
2019-03-27T20:03:40.532Z,95777.36
2019-03-27T20:06:12.364Z,95777.36
2019-03-27T20:08:45.131Z,95787.33
2019-03-27T20:11:16.948Z,95783.82
2019-03-27T20:13:48.638Z,95800.89
2019-03-27T20:16:21.763Z,95796.31
2019-03-27T20:18:51.903Z,95790.23
2019-03-27T20:21:24.328Z,95800.44
2019-03-27T20:24:00.165Z,95799.33
2019-03-27T20:26:30.431Z,95800.20
2019-03-27T20:29:00.746Z,95798.03
2019-03-27T20:31:30.941Z,95792.97
2019-03-27T20:34:04.370Z,95806.33
2019-03-27T20:36:36.303Z,95799.97
2019-03-27T20:39:10.417Z,95811.44
2019-03-27T20:41:40.545Z,95819.92
2019-03-27T20:44:10.688Z,95816.45
2019-03-27T20:46:40.761Z,95821.06
2019-03-27T20:49:10.871Z,95821.78
2019-03-27T20:51:41.427Z,95824.07
2019-03-27T20:54:11.599Z,95829.39
2019-03-27T20:56:41.879Z,95835.91
2019-03-27T20:59:12.206Z,95840.45
2019-03-27T21:01:42.379Z,95839.27
2019-03-27T21:04:15.945Z,95840.43
2019-03-27T21:06:46.395Z,95843.55
2019-03-27T21:09:16.489Z,95844.21
2019-03-27T21:11:46.705Z,95844.01
2019-03-27T21:14:16.954Z,95838.19
2019-03-27T21:16:47.246Z,95847.15
2019-03-27T21:19:17.402Z,95844.45
2019-03-27T21:21:49.592Z,95843.27
2019-03-27T21:24:19.885Z,95847.30
2019-03-27T21:26:51.810Z,95850.23
2019-03-27T21:29:24.382Z,95848.67
2019-03-27T21:31:55.971Z,95851.89
2019-03-27T21:34:27.595Z,95850.77
2019-03-27T21:37:01.554Z,95849.66
2019-03-27T21:39:35.721Z,95855.48
2019-03-27T21:42:05.874Z,95852.63
2019-03-27T21:44:36.102Z,95853.92
2019-03-27T21:47:09.193Z,95856.34
2019-03-27T21:49:39.306Z,95853.60
2019-03-27T21:52:09.581Z,95853.14
2019-03-27T21:54:39.839Z,95861.67
2019-03-27T21:57:17.328Z,95862.16
2019-03-27T21:59:48.988Z,95864.58
2019-03-27T22:02:22.042Z,95866.66
2019-03-27T22:04:52.089Z,95862.79
2019-03-27T22:07:22.189Z,95867.63
2019-03-27T22:09:53.942Z,95870.34
2019-03-27T22:12:24.144Z,95870.84
2019-03-27T22:14:54.319Z,95869.55
2019-03-27T22:17:24.688Z,95863.27
2019-03-27T22:19:55.101Z,95865.67
2019-03-27T22:22:28.754Z,95865.67
2019-03-27T22:25:00.364Z,95860.82
2019-03-27T22:27:30.732Z,95866.77
2019-03-27T22:30:00.984Z,95869.02
2019-03-27T22:32:33.062Z,95870.64
2019-03-27T22:35:03.419Z,95874.30
2019-03-27T22:37:37.195Z,95877.53
2019-03-27T22:40:07.554Z,95886.38
2019-03-27T22:42:39.854Z,95889.89
2019-03-27T22:45:10.089Z,95883.47
2019-03-27T22:47:40.438Z,95887.98
2019-03-27T22:50:10.720Z,95887.66
2019-03-27T22:52:42.261Z,95889.91
2019-03-27T22:55:14.395Z,95887.66
2019-03-27T22:57:46.386Z,95891.22
2019-03-27T23:00:19.781Z,95895.08
2019-03-27T23:02:51.432Z,95897.00
2019-03-27T23:05:21.723Z,95900.70
2019-03-27T23:07:51.935Z,95902.00
2019-03-27T23:10:23.214Z,95900.87
2019-03-27T23:12:53.456Z,95903.79
2019-03-27T23:15:23.801Z,95895.75
2019-03-27T23:17:54.004Z,95909.28
2019-03-27T23:20:25.304Z,95924.38
2019-03-27T23:22:55.560Z,95906.70
2019-03-27T23:25:25.778Z,95912.78
2019-03-27T23:27:58.018Z,95912.80
2019-03-27T23:30:27.846Z,95910.23
2019-03-27T23:32:57.990Z,95908.32
2019-03-27T23:35:28.159Z,95910.88
2019-03-27T23:37:58.307Z,95904.77
2019-03-27T23:40:32.951Z,95906.22
2019-03-27T23:43:03.213Z,95907.52
2019-03-27T23:45:33.411Z,95914.73
2019-03-27T23:48:05.768Z,95912.47
2019-03-27T23:50:37.699Z,95903.66
2019-03-27T23:53:08.021Z,95910.88
2019-03-27T23:55:41.991Z,95905.56
2019-03-27T23:58:14.593Z,95904.77
